createdAt,value
2022-12-01T00:02:48.114Z,65.20
2022-12-01T00:06:50.842Z,65.20
2022-12-01T00:10:53.712Z,65.20
2022-12-01T00:15:01.121Z,65.20
2022-12-01T00:19:03.989Z,65.20
2022-12-01T00:23:06.920Z,65.20
2022-12-01T00:27:09.553Z,65.20
2022-12-01T00:31:13.029Z,65.20
2022-12-01T00:35:16.480Z,65.30
2022-12-01T00:39:19.478Z,65.20
2022-12-01T00:43:22.178Z,65.20
2022-12-01T00:47:25.019Z,65.20
2022-12-01T00:51:27.741Z,65.20
2022-12-01T00:55:30.446Z,65.20
2022-12-01T00:59:33.178Z,65.20
2022-12-01T01:03:35.980Z,65.20
2022-12-01T01:07:38.795Z,65.20
2022-12-01T01:11:41.766Z,65.20
2022-12-01T01:15:46.124Z,65.20
2022-12-01T01:19:48.944Z,65.20
2022-12-01T01:23:52.980Z,65.10
2022-12-01T01:27:56.103Z,65.10
2022-12-01T01:31:58.918Z,65.10
2022-12-01T01:36:02.705Z,65.10
2022-12-01T01:40:06.229Z,65.10
2022-12-01T01:45:00.352Z,65.20
2022-12-01T01:49:13.918Z,65.10
2022-12-01T01:53:16.622Z,65.20
2022-12-01T01:57:34.028Z,65.20
2022-12-01T02:01:36.791Z,65.10
2022-12-01T02:05:40.283Z,65.00
2022-12-01T02:09:43.456Z,64.90
2022-12-01T02:14:14.470Z,64.80
2022-12-01T02:18:49.117Z,64.60
2022-12-01T02:23:17.023Z,64.50
2022-12-01T02:27:23.018Z,64.50
2022-12-01T02:31:41.741Z,64.50
2022-12-01T02:35:56.629Z,64.30
2022-12-01T02:40:03.840Z,64.10
2022-12-01T02:44:17.104Z,64.00
2022-12-01T02:48:29.246Z,63.90
2022-12-01T02:52:32.205Z,63.80
2022-12-01T02:56:34.847Z,63.90
2022-12-01T03:00:37.899Z,63.90
2022-12-01T03:04:56.874Z,63.70
2022-12-01T03:09:02.313Z,63.60
2022-12-01T03:13:16.472Z,63.70
2022-12-01T03:17:28.900Z,63.70
2022-12-01T03:21:48.070Z,63.70
2022-12-01T03:25:55.278Z,63.70
2022-12-01T03:30:00.854Z,63.70
2022-12-01T03:34:30.204Z,63.70
2022-12-01T03:38:36.296Z,63.70
2022-12-01T03:42:45.022Z,63.80
2022-12-01T03:46:59.606Z,63.80
2022-12-01T03:51:30.512Z,63.80
2022-12-01T03:55:38.289Z,63.70
2022-12-01T03:59:43.142Z,63.80
2022-12-01T04:03:47.527Z,63.80
2022-12-01T04:07:50.716Z,63.70
2022-12-01T04:12:12.179Z,63.70
2022-12-01T04:16:15.016Z,63.70
2022-12-01T04:20:18.170Z,63.60
2022-12-01T04:24:20.818Z,63.70
2022-12-01T04:28:23.769Z,63.70
2022-12-01T04:32:27.388Z,63.70
2022-12-01T04:36:32.981Z,63.70
2022-12-01T04:40:35.636Z,63.70
2022-12-01T04:44:38.580Z,63.80
2022-12-01T04:48:41.425Z,63.80
2022-12-01T04:52:44.191Z,63.90
2022-12-01T04:56:46.907Z,63.90
2022-12-01T05:00:49.631Z,64.00
2022-12-01T05:04:52.380Z,64.00
2022-12-01T05:08:59.961Z,64.10
2022-12-01T05:13:03.609Z,64.10
2022-12-01T05:17:06.536Z,64.20
2022-12-01T05:21:11.438Z,64.30
2022-12-01T05:25:15.661Z,64.50
2022-12-01T05:29:18.402Z,64.50
2022-12-01T05:33:22.158Z,64.60
2022-12-01T05:37:24.832Z,64.60
2022-12-01T05:41:30.830Z,64.70
2022-12-01T05:45:34.293Z,64.70
2022-12-01T05:49:36.991Z,64.70
2022-12-01T05:53:40.026Z,64.80
2022-12-01T05:57:42.706Z,64.90
2022-12-01T06:01:45.517Z,64.90
2022-12-01T06:05:48.333Z,65.00
2022-12-01T06:09:51.407Z,65.00
2022-12-01T06:13:54.130Z,65.00
2022-12-01T06:17:59.577Z,65.10
2022-12-01T06:22:02.654Z,65.20
2022-12-01T06:26:05.511Z,65.20
2022-12-01T06:30:09.013Z,65.30
2022-12-01T06:34:11.872Z,65.30
2022-12-01T06:38:14.976Z,65.30
2022-12-01T06:42:17.796Z,65.30
2022-12-01T06:46:20.802Z,65.40
2022-12-01T06:50:24.930Z,65.40
2022-12-01T06:54:27.721Z,65.40
2022-12-01T06:58:30.864Z,65.50
2022-12-01T07:02:34.378Z,65.50
2022-12-01T07:06:37.231Z,65.50
2022-12-01T07:10:40.332Z,65.60
2022-12-01T07:14:43.429Z,65.60
2022-12-01T07:18:46.429Z,65.60
2022-12-01T07:23:09.383Z,65.60
2022-12-01T07:27:12.034Z,65.60
2022-12-01T07:31:17.655Z,65.70
2022-12-01T07:35:20.466Z,65.80
2022-12-01T07:39:23.126Z,65.70
2022-12-01T07:43:25.922Z,65.50
2022-12-01T07:47:29.194Z,65.40
2022-12-01T07:51:31.941Z,65.30
2022-12-01T07:55:34.856Z,65.20
2022-12-01T07:59:37.978Z,65.10
2022-12-01T08:03:41.741Z,65.00
2022-12-01T08:07:45.691Z,64.90
2022-12-01T08:11:48.491Z,64.70
2022-12-01T08:15:51.185Z,64.60
2022-12-01T08:19:53.991Z,64.30
2022-12-01T08:23:58.017Z,64.20
2022-12-01T08:28:01.587Z,64.10
2022-12-01T08:32:05.329Z,64.10
2022-12-01T08:36:08.575Z,63.80
2022-12-01T08:40:11.868Z,63.60
2022-12-01T08:44:14.624Z,63.50
2022-12-01T08:48:17.472Z,63.30
2022-12-01T08:52:20.763Z,63.20
2022-12-01T08:56:31.664Z,63.00
2022-12-01T09:00:36.230Z,62.60
2022-12-01T09:04:39.033Z,62.30
2022-12-01T09:08:42.469Z,62.20
2022-12-01T09:12:45.239Z,62.10
2022-12-01T09:16:52.855Z,61.70
2022-12-01T09:20:56.168Z,61.60
2022-12-01T09:24:59.001Z,61.80
2022-12-01T09:29:05.299Z,61.30
2022-12-01T09:33:08.007Z,61.40
2022-12-01T09:37:10.690Z,61.40
2022-12-01T09:41:43.166Z,61.10
2022-12-01T09:45:51.282Z,60.70
2022-12-01T09:50:01.366Z,60.60
2022-12-01T09:54:04.255Z,60.30
2022-12-01T09:58:18.597Z,60.30
2022-12-01T10:02:38.528Z,59.70
2022-12-01T10:06:47.459Z,59.30
2022-12-01T10:10:53.041Z,59.30
2022-12-01T10:15:14.185Z,59.00
2022-12-01T10:19:37.454Z,59.50
2022-12-01T10:24:01.490Z,58.80
2022-12-01T10:28:23.888Z,57.70
2022-12-01T10:32:41.012Z,57.50
2022-12-01T10:36:44.051Z,57.00
2022-12-01T10:40:48.138Z,56.80
2022-12-01T10:44:51.944Z,56.70
2022-12-01T10:49:00.079Z,56.90
2022-12-01T10:53:04.234Z,56.30
2022-12-01T10:57:17.756Z,55.50
2022-12-01T11:01:30.940Z,54.70
2022-12-01T11:05:40.701Z,54.60
2022-12-01T11:09:46.179Z,54.30
2022-12-01T11:13:49.043Z,54.30
2022-12-01T11:18:03.387Z,53.90
2022-12-01T11:22:30.385Z,53.90
2022-12-01T11:26:34.591Z,54.30
2022-12-01T11:30:37.277Z,54.40
2022-12-01T11:34:40.020Z,53.90
2022-12-01T11:38:42.797Z,54.00
2022-12-01T11:42:54.752Z,54.00
2022-12-01T11:47:21.540Z,53.40
2022-12-01T11:51:21.064Z,53.80
2022-12-01T11:55:26.414Z,54.10
2022-12-01T11:59:29.683Z,53.90
2022-12-01T12:03:55.558Z,54.10
2022-12-01T12:08:28.741Z,54.10
2022-12-01T12:12:50.029Z,54.50
2022-12-01T12:16:58.674Z,54.50
2022-12-01T12:21:44.133Z,54.50
2022-12-01T12:26:27.138Z,53.50
2022-12-01T12:30:32.117Z,54.00
2022-12-01T12:35:02.985Z,53.30
2022-12-01T12:39:21.704Z,53.40
2022-12-01T12:43:36.557Z,53.50
2022-12-01T12:47:49.575Z,53.00
2022-12-01T12:52:16.912Z,53.00
2022-12-01T12:56:22.693Z,53.10
2022-12-01T13:00:27.741Z,53.40
2022-12-01T13:04:51.568Z,53.70
2022-12-01T13:09:02.916Z,53.80
2022-12-01T13:13:32.346Z,54.00
2022-12-01T13:17:40.466Z,54.10
2022-12-01T13:21:45.214Z,54.30
2022-12-01T13:26:00.739Z,54.60
2022-12-01T13:30:04.589Z,54.60
2022-12-01T13:34:07.249Z,54.80
2022-12-01T13:38:24.911Z,54.70
2022-12-01T13:42:30.952Z,54.60
2022-12-01T13:46:43.021Z,54.90
2022-12-01T13:50:53.666Z,54.90
2022-12-01T13:55:08.740Z,55.00
2022-12-01T13:59:49.122Z,55.20
2022-12-01T14:03:57.961Z,55.50
2022-12-01T14:08:00.981Z,56.00
2022-12-01T14:12:10.974Z,56.20
2022-12-01T14:16:13.852Z,56.20
2022-12-01T14:20:22.168Z,56.30
2022-12-01T14:24:36.456Z,56.60
2022-12-01T14:29:01.114Z,56.30
2022-12-01T14:33:41.502Z,56.30
2022-12-01T14:37:47.764Z,56.20
2022-12-01T14:42:00.543Z,56.50
2022-12-01T14:46:11.806Z,56.60
2022-12-01T14:50:24.758Z,56.70
2022-12-01T14:54:39.258Z,56.80
2022-12-01T14:58:53.110Z,57.10
2022-12-01T15:03:03.250Z,57.10
2022-12-01T15:07:06.157Z,57.40
2022-12-01T15:11:21.966Z,57.30
2022-12-01T15:15:26.727Z,57.50
2022-12-01T15:19:37.530Z,57.50
2022-12-01T15:24:03.135Z,57.50
2022-12-01T15:28:21.611Z,57.70
2022-12-01T15:32:25.981Z,58.00
2022-12-01T15:36:28.891Z,58.30
2022-12-01T15:45:20.992Z,58.80
2022-12-01T15:49:33.196Z,59.00
2022-12-01T15:53:39.839Z,59.40
2022-12-01T15:57:46.752Z,59.50
2022-12-01T16:01:49.368Z,59.70
2022-12-01T16:05:52.238Z,59.50
2022-12-01T16:10:00.183Z,60.00
2022-12-01T16:14:19.593Z,60.30
2022-12-01T16:18:33.222Z,60.40
2022-12-01T16:22:35.906Z,60.60
2022-12-01T16:26:46.360Z,60.60
2022-12-01T16:30:50.330Z,60.80
2022-12-01T16:34:53.734Z,60.90
2022-12-01T16:38:57.941Z,61.10
2022-12-01T16:43:00.635Z,61.20
2022-12-01T16:47:03.487Z,61.30
2022-12-01T16:51:07.875Z,61.50
2022-12-01T16:55:25.919Z,61.50
2022-12-01T16:59:28.834Z,61.70
2022-12-01T17:03:31.530Z,61.70
2022-12-01T17:07:34.227Z,61.80
2022-12-01T17:11:37.000Z,61.90
2022-12-01T17:15:48.472Z,62.00
2022-12-01T17:19:54.388Z,62.20
2022-12-01T17:23:57.139Z,62.10
2022-12-01T17:27:59.777Z,62.20
2022-12-01T17:32:02.601Z,62.30
2022-12-01T17:36:11.639Z,62.40
2022-12-01T17:40:14.787Z,62.60
2022-12-01T17:44:17.439Z,62.50
2022-12-01T17:48:20.279Z,62.60
2022-12-01T17:52:28.198Z,62.70
2022-12-01T17:56:31.678Z,62.80
2022-12-01T18:00:34.573Z,63.00
2022-12-01T18:04:37.544Z,63.00
2022-12-01T18:08:41.215Z,63.10
2022-12-01T18:12:44.463Z,63.10
2022-12-01T18:16:47.151Z,63.20
2022-12-01T18:20:49.890Z,63.20
2022-12-01T18:24:52.995Z,63.10
2022-12-01T18:29:00.995Z,63.20
2022-12-01T18:33:03.838Z,63.20
2022-12-01T18:37:07.553Z,63.20
2022-12-01T18:41:10.364Z,63.30
2022-12-01T18:45:19.411Z,63.30
2022-12-01T18:49:23.717Z,63.30
2022-12-01T18:53:26.719Z,63.40
2022-12-01T18:57:29.585Z,63.40
2022-12-01T19:01:38.372Z,63.40
2022-12-01T19:05:41.334Z,63.40
2022-12-01T19:09:44.307Z,63.40
2022-12-01T19:13:48.001Z,63.40
2022-12-01T19:17:50.884Z,63.40
2022-12-01T19:21:54.045Z,63.40
2022-12-01T19:25:57.127Z,63.50
2022-12-01T19:29:59.802Z,63.50
2022-12-01T19:34:04.145Z,63.40
2022-12-01T19:38:06.845Z,63.50
2022-12-01T19:42:09.540Z,63.60
2022-12-01T19:46:15.306Z,63.60
2022-12-01T19:50:18.616Z,63.60
2022-12-01T19:54:21.575Z,63.60
2022-12-01T19:58:25.701Z,63.60
2022-12-01T20:02:29.468Z,63.70
2022-12-01T20:06:34.919Z,63.60
2022-12-01T20:10:37.529Z,63.70
2022-12-01T20:14:41.093Z,63.70
2022-12-01T20:18:44.262Z,63.90
2022-12-01T20:22:47.533Z,64.10
2022-12-01T20:26:53.518Z,64.40
2022-12-01T20:30:58.130Z,64.60
2022-12-01T20:35:02.008Z,64.90
2022-12-01T20:39:06.479Z,65.00
2022-12-01T20:43:09.369Z,65.10
2022-12-01T20:47:12.274Z,65.20
2022-12-01T20:51:15.566Z,65.30
2022-12-01T20:55:18.393Z,65.30
2022-12-01T20:59:21.171Z,65.40
2022-12-01T21:03:23.827Z,65.50
2022-12-01T21:07:26.632Z,65.40
2022-12-01T21:11:53.024Z,65.60
2022-12-01T21:16:01.638Z,65.50
2022-12-01T21:20:26.117Z,65.50
2022-12-01T21:24:35.732Z,65.70
2022-12-01T21:28:43.019Z,65.60
2022-12-01T21:32:47.145Z,65.40
2022-12-01T21:36:52.413Z,65.30
2022-12-01T21:40:55.113Z,65.10
2022-12-01T21:44:58.002Z,65.00
2022-12-01T21:49:01.544Z,64.90
2022-12-01T21:53:15.031Z,65.00
2022-12-01T21:57:43.049Z,64.90
2022-12-01T22:01:46.717Z,65.00
2022-12-01T22:06:21.142Z,65.00
2022-12-01T22:11:02.554Z,65.00
2022-12-01T22:15:33.160Z,65.10
2022-12-01T22:19:42.601Z,65.40
2022-12-01T22:23:45.274Z,65.70
2022-12-01T22:27:47.983Z,65.70
2022-12-01T22:31:50.870Z,65.80
2022-12-01T22:35:53.857Z,65.80
2022-12-01T22:39:57.317Z,66.00
2022-12-01T22:44:00.771Z,66.30
2022-12-01T22:48:13.520Z,66.50
2022-12-01T22:52:23.180Z,66.50
2022-12-01T22:56:25.931Z,66.90
2022-12-01T23:00:28.825Z,66.80
2022-12-01T23:04:41.064Z,67.10
2022-12-01T23:08:44.788Z,67.40
2022-12-01T23:12:50.385Z,67.30
2022-12-01T23:17:04.442Z,67.50
2022-12-01T23:21:07.523Z,67.80
2022-12-01T23:25:16.228Z,67.50
2022-12-01T23:29:19.169Z,67.70
2022-12-01T23:33:33.680Z,67.80
2022-12-01T23:37:39.206Z,68.10
2022-12-01T23:41:47.128Z,68.00
2022-12-01T23:45:58.439Z,68.20
2022-12-01T23:50:04.503Z,68.20
2022-12-01T23:54:16.222Z,68.30
2022-12-01T23:58:19.154Z,68.40
